createdAt,value
2022-08-29T00:01:35.401Z,101295.31
2022-08-29T00:04:03.586Z,101291.88
2022-08-29T00:06:31.877Z,101290.25
2022-08-29T00:08:58.936Z,101295.94
2022-08-29T00:11:26.024Z,101296.91
2022-08-29T00:13:53.181Z,101297.41
2022-08-29T00:16:20.305Z,101289.88
2022-08-29T00:18:47.374Z,101294.50
2022-08-29T00:21:14.755Z,101290.75
2022-08-29T00:23:45.420Z,101293.72
2022-08-29T00:26:13.555Z,101303.19
2022-08-29T00:28:40.678Z,101304.19
2022-08-29T00:31:07.749Z,101294.84
2022-08-29T00:33:35.222Z,101296.13
2022-08-29T00:36:06.803Z,101299.69
2022-08-29T00:38:36.550Z,101297.34
2022-08-29T00:41:06.741Z,101290.28
2022-08-29T00:43:37.826Z,101297.00
2022-08-29T00:46:35.044Z,101291.94
2022-08-29T00:49:35.047Z,101293.56
2022-08-29T00:52:12.488Z,101301.56
2022-08-29T00:54:50.850Z,101298.28
2022-08-29T00:57:23.763Z,101295.00
2022-08-29T00:59:53.038Z,101287.78
2022-08-29T01:02:20.275Z,101286.97
2022-08-29T01:04:47.638Z,101283.38
2022-08-29T01:07:15.581Z,101293.50
2022-08-29T01:09:47.023Z,101290.84
2022-08-29T01:12:17.143Z,101287.56
2022-08-29T01:14:52.617Z,101293.25
2022-08-29T01:17:47.304Z,101297.94
2022-08-29T01:20:41.555Z,101306.22
2022-08-29T01:23:21.162Z,101295.91
2022-08-29T01:25:52.640Z,101307.03
2022-08-29T01:28:29.768Z,101309.50
2022-08-29T01:31:13.516Z,101307.84
2022-08-29T01:33:57.835Z,101315.38
2022-08-29T01:36:54.139Z,101315.69
2022-08-29T01:39:30.648Z,101320.63
2022-08-29T01:42:02.617Z,101322.91
2022-08-29T01:44:30.209Z,101320.22
2022-08-29T01:47:03.095Z,101325.28
2022-08-29T01:49:40.764Z,101327.25
2022-08-29T01:52:09.419Z,101321.47
2022-08-29T01:54:36.615Z,101341.38
2022-08-29T01:57:04.134Z,101329.44
2022-08-29T01:59:33.477Z,101329.13
2022-08-29T02:02:28.820Z,101330.47
2022-08-29T02:04:59.414Z,101323.75
2022-08-29T02:07:27.274Z,101333.25
2022-08-29T02:09:54.489Z,101333.97
2022-08-29T02:12:22.912Z,101326.91
2022-08-29T02:14:50.900Z,101337.41
2022-08-29T02:17:19.063Z,101330.19
2022-08-29T02:19:46.116Z,101321.03
2022-08-29T02:22:14.516Z,101324.13
2022-08-29T02:24:42.316Z,101323.41
2022-08-29T02:27:12.673Z,101325.31
2022-08-29T02:29:39.854Z,101324.50
2022-08-29T02:32:14.436Z,101320.25
2022-08-29T02:34:47.652Z,101322.09
2022-08-29T02:37:16.996Z,101322.09
2022-08-29T02:39:44.089Z,101318.94
2022-08-29T02:42:17.703Z,101316.97
2022-08-29T02:44:44.729Z,101320.56
2022-08-29T02:47:11.719Z,101315.53
2022-08-29T02:49:39.631Z,101320.56
2022-08-29T02:52:08.589Z,101320.56
2022-08-29T02:54:36.028Z,101326.75
2022-08-29T02:57:05.558Z,101322.53
2022-08-29T02:59:32.776Z,101325.19
2022-08-29T03:01:59.947Z,101323.25
2022-08-29T03:04:27.443Z,101330.25
2022-08-29T03:06:54.630Z,101322.91
2022-08-29T03:09:21.712Z,101322.44
2022-08-29T03:11:48.735Z,101309.78
2022-08-29T03:14:16.029Z,101324.78
2022-08-29T03:16:43.156Z,101318.13
2022-08-29T03:19:10.143Z,101331.06
2022-08-29T03:21:37.221Z,101326.84
2022-08-29T03:24:05.129Z,101337.94
2022-08-29T03:26:32.107Z,101338.59
2022-08-29T03:28:59.104Z,101329.41
2022-08-29T03:31:26.178Z,101333.63
2022-08-29T03:33:53.222Z,101318.00
2022-08-29T03:36:20.285Z,101327.28
2022-08-29T03:38:48.491Z,101322.16
2022-08-29T03:41:29.958Z,101323.09
2022-08-29T03:43:59.014Z,101319.38
2022-08-29T03:46:28.032Z,101326.03
2022-08-29T03:48:55.222Z,101321.31
2022-08-29T03:51:22.751Z,101323.69
2022-08-29T03:53:52.052Z,101324.31
2022-08-29T03:56:19.240Z,101326.34
2022-08-29T03:58:52.816Z,101324.09
2022-08-29T04:01:25.898Z,101320.81
2022-08-29T04:03:56.244Z,101321.91
2022-08-29T04:06:28.437Z,101319.16
2022-08-29T04:08:57.572Z,101320.81
2022-08-29T04:11:28.174Z,101324.41
2022-08-29T04:13:55.614Z,101323.59
2022-08-29T04:16:30.912Z,101326.97
2022-08-29T04:18:59.912Z,101326.16
2022-08-29T04:21:27.239Z,101315.97
2022-08-29T04:23:54.514Z,101331.00
2022-08-29T04:26:37.756Z,101331.53
2022-08-29T04:29:09.960Z,101330.38
2022-08-29T04:31:39.328Z,101329.34
2022-08-29T04:34:11.294Z,101326.28
2022-08-29T04:36:45.469Z,101325.97
2022-08-29T04:39:14.967Z,101335.63
2022-08-29T04:41:43.619Z,101330.59
2022-08-29T04:44:13.074Z,101334.38
2022-08-29T04:46:40.842Z,101329.94
2022-08-29T04:49:08.158Z,101334.06
2022-08-29T04:51:36.951Z,101336.53
2022-08-29T04:54:06.969Z,101341.78
2022-08-29T04:56:35.281Z,101335.31
2022-08-29T04:59:02.305Z,101338.81
2022-08-29T05:01:30.695Z,101345.25
2022-08-29T05:03:59.229Z,101345.13
2022-08-29T05:06:27.473Z,101331.13
2022-08-29T05:08:59.448Z,101347.88
2022-08-29T05:11:30.881Z,101346.31
2022-08-29T05:14:00.195Z,101357.81
2022-08-29T05:16:30.184Z,101351.19
2022-08-29T05:18:59.882Z,101353.28
2022-08-29T05:21:36.481Z,101358.75
2022-08-29T05:24:13.496Z,101358.94
2022-08-29T05:26:45.742Z,101360.25
2022-08-29T05:29:14.397Z,101365.56
2022-08-29T05:31:45.343Z,101371.69
2022-08-29T05:34:32.572Z,101366.16
2022-08-29T05:37:06.707Z,101368.53
2022-08-29T05:39:36.970Z,101365.47
2022-08-29T05:42:08.921Z,101370.78
2022-08-29T05:44:38.136Z,101380.53
2022-08-29T05:47:10.180Z,101369.56
2022-08-29T05:49:41.345Z,101370.91
2022-08-29T05:52:09.795Z,101372.34
2022-08-29T05:54:42.006Z,101373.53
2022-08-29T05:57:18.694Z,101374.84
2022-08-29T05:59:53.395Z,101377.81
2022-08-29T06:02:23.530Z,101381.41
2022-08-29T06:04:52.145Z,101376.00
2022-08-29T06:07:20.226Z,101374.53
2022-08-29T06:09:47.323Z,101368.97
2022-08-29T06:12:19.035Z,101370.44
2022-08-29T06:14:50.100Z,101372.41
2022-08-29T06:17:18.134Z,101368.81
2022-08-29T06:19:45.394Z,101372.56
2022-08-29T06:22:12.957Z,101369.94
2022-08-29T06:24:40.498Z,101380.13
2022-08-29T06:27:12.906Z,101381.25
2022-08-29T06:29:43.683Z,101382.72
2022-08-29T06:32:13.382Z,101386.47
2022-08-29T06:34:40.498Z,101390.38
2022-08-29T06:37:07.625Z,101397.53
2022-08-29T06:39:34.804Z,101391.50
2022-08-29T06:42:01.990Z,101389.41
2022-08-29T06:44:31.115Z,101401.03
2022-08-29T06:46:59.703Z,101392.53
2022-08-29T06:49:27.920Z,101396.97
2022-08-29T06:51:58.428Z,101405.31
2022-08-29T06:54:28.826Z,101403.03
2022-08-29T06:56:58.473Z,101404.88
2022-08-29T06:59:29.526Z,101411.41
2022-08-29T07:01:56.709Z,101414.00
2022-08-29T07:04:26.691Z,101408.06
2022-08-29T07:06:54.291Z,101421.38
2022-08-29T07:09:21.615Z,101421.84
2022-08-29T07:11:48.587Z,101414.63
2022-08-29T07:14:15.663Z,101423.13
2022-08-29T07:16:43.455Z,101424.06
2022-08-29T07:19:11.703Z,101433.72
2022-08-29T07:21:40.239Z,101434.09
2022-08-29T07:24:09.221Z,101432.22
2022-08-29T07:26:43.760Z,101435.63
2022-08-29T07:29:20.757Z,101430.72
2022-08-29T07:31:49.561Z,101427.72
2022-08-29T07:34:20.741Z,101436.53
2022-08-29T07:36:48.361Z,101446.03
2022-08-29T07:39:19.931Z,101439.78
2022-08-29T07:41:47.796Z,101438.47
2022-08-29T07:44:17.298Z,101441.91
2022-08-29T07:46:45.736Z,101449.19
2022-08-29T07:49:13.172Z,101436.84
2022-08-29T07:51:44.217Z,101446.28
2022-08-29T07:54:13.498Z,101444.94
2022-08-29T07:56:43.204Z,101449.97
2022-08-29T07:59:10.771Z,101446.53
2022-08-29T08:01:40.398Z,101446.31
2022-08-29T08:04:08.401Z,101454.19
2022-08-29T08:06:36.824Z,101453.72
2022-08-29T08:09:06.441Z,101453.72
2022-08-29T08:11:34.228Z,101459.34
2022-08-29T08:14:02.136Z,101458.19
2022-08-29T08:16:30.908Z,101461.63
2022-08-29T08:18:59.370Z,101463.84
2022-08-29T08:21:27.388Z,101459.41
2022-08-29T08:23:54.846Z,101462.09
2022-08-29T08:26:22.530Z,101463.41
2022-08-29T08:28:50.466Z,101461.22
2022-08-29T08:31:18.587Z,101467.69
2022-08-29T08:33:47.983Z,101459.66
2022-08-29T08:36:40.950Z,101469.63
2022-08-29T08:39:09.863Z,101465.31
2022-08-29T08:42:11.858Z,101470.78
2022-08-29T08:45:11.062Z,101464.72
2022-08-29T08:48:10.245Z,101467.66
2022-08-29T08:51:15.224Z,101469.41
2022-08-29T08:53:52.226Z,101464.59
2022-08-29T08:56:44.379Z,101464.38
2022-08-29T08:59:42.726Z,101478.75
2022-08-29T09:02:43.149Z,101475.69
2022-08-29T09:05:57.598Z,101473.94
2022-08-29T09:09:31.513Z,101472.66
2022-08-29T09:12:50.339Z,101476.53
2022-08-29T09:15:32.843Z,101475.47
2022-08-29T09:18:24.448Z,101473.13
2022-08-29T09:20:51.574Z,101482.03
2022-08-29T09:23:47.673Z,101480.84
2022-08-29T09:26:22.991Z,101482.34
2022-08-29T09:28:51.043Z,101483.06
2022-08-29T09:31:32.766Z,101476.88
2022-08-29T09:34:50.569Z,101483.16
2022-08-29T09:37:35.126Z,101474.53
2022-08-29T09:40:19.251Z,101475.81
2022-08-29T09:43:03.350Z,101478.38
2022-08-29T09:45:30.556Z,101472.06
2022-08-29T09:48:17.718Z,101475.75
2022-08-29T09:50:46.346Z,101475.47
2022-08-29T09:53:24.941Z,101469.69
2022-08-29T09:55:53.700Z,101475.56
2022-08-29T09:58:20.588Z,101475.88
2022-08-29T10:01:16.371Z,101474.31
2022-08-29T10:03:58.669Z,101475.47
2022-08-29T10:06:44.228Z,101478.66
2022-08-29T10:09:28.935Z,101479.91
2022-08-29T10:12:15.174Z,101476.63
2022-08-29T10:15:04.814Z,101474.22
2022-08-29T10:18:20.570Z,101481.06
2022-08-29T10:21:12.311Z,101485.44
2022-08-29T10:24:15.857Z,101484.44
2022-08-29T10:27:23.992Z,101484.88
2022-08-29T10:30:20.250Z,101485.41
2022-08-29T10:34:02.955Z,101486.22
2022-08-29T10:36:43.613Z,101493.72
2022-08-29T10:39:33.659Z,101495.19
2022-08-29T10:42:28.363Z,101497.00
2022-08-29T10:45:14.184Z,101501.06
2022-08-29T10:48:44.728Z,101495.38
2022-08-29T10:51:43.210Z,101489.59
2022-08-29T10:54:55.094Z,101492.84
2022-08-29T10:58:02.602Z,101489.84
2022-08-29T11:00:47.480Z,101480.84
2022-08-29T11:03:36.097Z,101492.63
2022-08-29T11:06:31.988Z,101489.25
2022-08-29T11:09:42.321Z,101485.75
2022-08-29T11:12:34.314Z,101481.03
2022-08-29T11:15:43.868Z,101484.97
2022-08-29T11:18:23.576Z,101484.53
2022-08-29T11:21:13.500Z,101475.28
2022-08-29T11:23:48.348Z,101486.69
2022-08-29T11:26:51.662Z,101477.06
2022-08-29T11:30:06.580Z,101474.69
2022-08-29T11:33:04.390Z,101479.34
2022-08-29T11:36:18.862Z,101482.31
2022-08-29T11:39:14.183Z,101481.44
2022-08-29T11:41:58.578Z,101483.28
2022-08-29T11:44:34.761Z,101481.28
2022-08-29T11:47:40.442Z,101496.56
2022-08-29T11:50:17.217Z,101489.28
2022-08-29T11:53:24.749Z,101500.94
2022-08-29T11:56:13.239Z,101483.94
2022-08-29T11:58:46.682Z,101486.31
2022-08-29T12:01:36.799Z,101496.72
2022-08-29T12:04:11.036Z,101492.44
2022-08-29T12:07:02.426Z,101491.91
2022-08-29T12:09:57.931Z,101483.50
2022-08-29T12:12:45.726Z,101482.50
2022-08-29T12:15:27.631Z,101481.56
2022-08-29T12:18:02.586Z,101480.91
2022-08-29T12:20:30.394Z,101471.97
2022-08-29T12:23:15.294Z,101474.97
2022-08-29T12:26:22.015Z,101468.13
2022-08-29T12:29:01.961Z,101466.78
2022-08-29T12:31:47.255Z,101474.09
2022-08-29T12:35:15.615Z,101469.59
2022-08-29T12:39:03.565Z,101461.59
2022-08-29T12:41:55.857Z,101454.81
2022-08-29T12:44:40.302Z,101453.66
2022-08-29T12:48:02.934Z,101450.06
2022-08-29T12:50:45.475Z,101450.28
2022-08-29T12:53:37.386Z,101446.72
2022-08-29T12:56:33.949Z,101441.44
2022-08-29T12:59:05.281Z,101436.19
2022-08-29T13:01:39.596Z,101443.13
2022-08-29T13:04:19.483Z,101441.53
2022-08-29T13:07:17.011Z,101444.56
2022-08-29T13:09:54.835Z,101446.47
2022-08-29T13:12:36.016Z,101442.06
2022-08-29T13:15:33.062Z,101445.41
2022-08-29T13:18:01.814Z,101444.78
2022-08-29T13:20:48.332Z,101437.09
2022-08-29T13:23:29.784Z,101435.19
2022-08-29T13:26:20.240Z,101437.94
2022-08-29T13:29:04.033Z,101438.66
2022-08-29T13:31:36.431Z,101433.19
2022-08-29T13:34:19.401Z,101434.72
2022-08-29T13:36:54.667Z,101434.72
2022-08-29T13:39:41.083Z,101432.59
2022-08-29T13:42:27.972Z,101429.97
2022-08-29T13:45:11.528Z,101426.59
2022-08-29T13:48:12.477Z,101421.63
2022-08-29T13:50:40.975Z,101417.53
2022-08-29T13:53:08.162Z,101418.44
2022-08-29T13:55:35.410Z,101426.56
2022-08-29T13:58:04.583Z,101429.00
2022-08-29T14:00:35.200Z,101421.31
2022-08-29T14:03:07.115Z,101417.31
2022-08-29T14:05:36.921Z,101409.34
2022-08-29T14:08:06.224Z,101409.31
2022-08-29T14:10:33.369Z,101410.47
2022-08-29T14:13:00.405Z,101413.31
2022-08-29T14:15:27.468Z,101413.72
2022-08-29T14:17:54.854Z,101409.75
2022-08-29T14:20:22.376Z,101409.22
2022-08-29T14:22:49.487Z,101411.78
2022-08-29T14:25:20.533Z,101403.84
2022-08-29T14:27:48.878Z,101404.25
2022-08-29T14:30:22.954Z,101403.53
2022-08-29T14:32:50.209Z,101402.31
2022-08-29T14:35:25.850Z,101396.22
2022-08-29T14:37:56.647Z,101408.28
2022-08-29T14:40:25.684Z,101405.34
2022-08-29T14:42:53.234Z,101397.28
2022-08-29T14:45:21.223Z,101398.94
2022-08-29T14:47:51.342Z,101390.47
2022-08-29T14:50:18.932Z,101402.31
2022-08-29T14:52:45.952Z,101394.59
2022-08-29T14:55:14.055Z,101404.75
2022-08-29T14:57:42.181Z,101393.63
2022-08-29T15:00:17.293Z,101398.66
2022-08-29T15:02:44.693Z,101395.72
2022-08-29T15:05:12.828Z,101405.13
2022-08-29T15:07:42.054Z,101387.69
2022-08-29T15:10:13.714Z,101396.94
2022-08-29T15:12:41.760Z,101390.72
2022-08-29T15:15:10.754Z,101386.28
2022-08-29T15:17:38.934Z,101386.41
2022-08-29T15:22:56.275Z,101391.38
2022-08-29T15:25:24.174Z,101390.94
2022-08-29T15:27:51.574Z,101388.09
2022-08-29T15:30:24.824Z,101378.00
2022-08-29T15:32:53.268Z,101381.19
2022-08-29T15:35:20.626Z,101370.22
2022-08-29T15:37:47.643Z,101377.56
2022-08-29T15:40:14.989Z,101382.44
2022-08-29T15:42:42.617Z,101370.63
2022-08-29T15:45:10.880Z,101371.91
2022-08-29T15:47:40.504Z,101373.88
2022-08-29T15:50:14.694Z,101371.66
2022-08-29T15:52:42.260Z,101365.31
2022-08-29T15:55:10.417Z,101358.53
2022-08-29T15:57:39.565Z,101364.31
2022-08-29T16:00:30.466Z,101371.63
2022-08-29T16:03:02.824Z,101370.31
2022-08-29T16:05:32.102Z,101360.44
2022-08-29T16:07:59.390Z,101361.00
2022-08-29T16:10:27.388Z,101359.50
2022-08-29T16:12:54.463Z,101360.75
2022-08-29T16:15:21.596Z,101366.56
2022-08-29T16:17:49.022Z,101360.78
2022-08-29T16:20:16.224Z,101365.97
2022-08-29T16:22:43.494Z,101361.00
2022-08-29T16:25:13.798Z,101364.03
2022-08-29T16:27:41.321Z,101359.50
2022-08-29T16:30:10.749Z,101361.34
2022-08-29T16:32:38.832Z,101365.66
2022-08-29T16:35:08.080Z,101362.38
2022-08-29T16:37:35.549Z,101358.97
2022-08-29T16:40:04.616Z,101365.25
2022-08-29T16:42:31.706Z,101365.88
2022-08-29T16:44:59.878Z,101362.19
2022-08-29T16:47:27.992Z,101365.78
2022-08-29T16:49:55.091Z,101360.53
2022-08-29T16:52:22.451Z,101363.69
2022-08-29T16:54:49.503Z,101354.59
2022-08-29T16:57:21.324Z,101355.53
2022-08-29T16:59:48.341Z,101352.09
2022-08-29T17:02:15.497Z,101358.63
2022-08-29T17:04:42.641Z,101353.53
2022-08-29T17:07:09.701Z,101353.81
2022-08-29T17:09:36.726Z,101354.53
2022-08-29T17:12:05.338Z,101356.50
2022-08-29T17:14:34.374Z,101354.72
2022-08-29T17:17:03.083Z,101359.00
2022-08-29T17:19:33.256Z,101364.50
2022-08-29T17:22:00.996Z,101363.19
2022-08-29T17:24:28.648Z,101354.66
2022-08-29T17:26:55.678Z,101359.75
2022-08-29T17:29:22.670Z,101357.97
2022-08-29T17:31:49.819Z,101359.66
2022-08-29T17:34:16.976Z,101368.81
2022-08-29T17:36:44.323Z,101365.38
2022-08-29T17:39:12.860Z,101370.03
2022-08-29T17:41:40.494Z,101362.97
2022-08-29T17:44:11.233Z,101361.16
2022-08-29T17:46:38.425Z,101360.81
2022-08-29T17:49:08.381Z,101362.97
2022-08-29T17:51:38.051Z,101365.91
2022-08-29T17:54:12.436Z,101354.72
2022-08-29T17:56:52.535Z,101361.94
2022-08-29T17:59:21.981Z,101361.94
2022-08-29T18:01:50.040Z,101363.47
2022-08-29T18:04:17.499Z,101369.31
2022-08-29T18:06:45.352Z,101366.81
2022-08-29T18:09:13.407Z,101367.81
2022-08-29T18:11:46.717Z,101370.47
2022-08-29T18:14:13.927Z,101382.97
2022-08-29T18:16:41.195Z,101373.41
2022-08-29T18:19:09.185Z,101386.84
2022-08-29T18:21:36.734Z,101373.44
2022-08-29T18:24:04.493Z,101383.47
2022-08-29T18:26:34.976Z,101390.50
2022-08-29T18:29:02.102Z,101392.28
2022-08-29T18:31:29.220Z,101392.56
2022-08-29T18:34:00.571Z,101394.06
2022-08-29T18:36:35.693Z,101396.97
2022-08-29T18:39:07.033Z,101398.84
2022-08-29T18:41:34.439Z,101403.75
2022-08-29T18:44:02.075Z,101402.03
2022-08-29T18:46:30.571Z,101401.56
2022-08-29T18:48:58.030Z,101402.63
2022-08-29T18:51:26.302Z,101409.31
2022-08-29T18:53:54.364Z,101408.41
2022-08-29T18:56:21.556Z,101410.25
2022-08-29T18:58:49.218Z,101418.06
2022-08-29T19:01:29.760Z,101422.28
2022-08-29T19:04:02.523Z,101425.00
2022-08-29T19:06:29.862Z,101426.75
2022-08-29T19:08:57.386Z,101425.69
2022-08-29T19:11:28.305Z,101437.16
2022-08-29T19:13:55.379Z,101428.16
2022-08-29T19:16:24.004Z,101439.28
2022-08-29T19:18:52.543Z,101439.63
2022-08-29T19:21:20.133Z,101443.81
2022-08-29T19:23:52.642Z,101443.69
2022-08-29T19:26:38.185Z,101441.59
2022-08-29T19:29:15.873Z,101443.47
2022-08-29T19:31:45.679Z,101456.41
2022-08-29T19:34:13.254Z,101454.50
2022-08-29T19:36:43.013Z,101457.06
2022-08-29T19:39:15.813Z,101449.59
2022-08-29T19:41:43.156Z,101452.72
2022-08-29T19:44:10.242Z,101450.97
2022-08-29T19:46:39.243Z,101452.97
2022-08-29T19:51:54.257Z,101453.84
2022-08-29T19:54:21.824Z,101465.59
2022-08-29T19:56:49.090Z,101464.31
2022-08-29T19:59:16.455Z,101460.91
2022-08-29T20:01:45.117Z,101468.69
2022-08-29T20:04:12.590Z,101471.84
2022-08-29T20:06:39.716Z,101471.00
2022-08-29T20:09:07.434Z,101474.50
2022-08-29T20:11:42.823Z,101476.13
2022-08-29T20:14:11.217Z,101472.53
2022-08-29T20:16:42.025Z,101479.97
2022-08-29T20:19:12.129Z,101468.72
2022-08-29T20:21:41.106Z,101476.38
2022-08-29T20:24:08.287Z,101476.78
2022-08-29T20:26:38.365Z,101480.75
2022-08-29T20:29:12.049Z,101479.56
2022-08-29T20:31:40.642Z,101467.91
2022-08-29T20:34:07.867Z,101477.13
2022-08-29T20:36:54.290Z,101484.19
2022-08-29T20:39:23.257Z,101491.63
2022-08-29T20:41:58.083Z,101493.00
2022-08-29T20:44:33.748Z,101484.00
2022-08-29T20:47:01.141Z,101489.28
2022-08-29T20:49:28.290Z,101494.41
2022-08-29T20:51:55.312Z,101489.50
2022-08-29T20:54:25.376Z,101496.25
2022-08-29T20:56:53.477Z,101497.41
2022-08-29T20:59:26.291Z,101506.28
2022-08-29T21:01:55.632Z,101500.69
2022-08-29T21:04:41.389Z,101502.19
2022-08-29T21:07:13.597Z,101497.06
2022-08-29T21:09:46.936Z,101503.28
2022-08-29T21:12:17.384Z,101500.16
2022-08-29T21:14:45.058Z,101499.50
2022-08-29T21:17:15.301Z,101505.88
2022-08-29T21:19:43.795Z,101505.56
2022-08-29T21:22:15.215Z,101501.09
2022-08-29T21:24:43.146Z,101504.59
2022-08-29T21:27:10.657Z,101507.03
2022-08-29T21:29:38.051Z,101502.75
2022-08-29T21:32:05.322Z,101503.56
2022-08-29T21:34:32.781Z,101501.44
2022-08-29T21:36:59.874Z,101501.44
2022-08-29T21:39:28.658Z,101500.97
2022-08-29T21:41:58.006Z,101502.47
2022-08-29T21:44:28.574Z,101509.22
2022-08-29T21:46:55.719Z,101496.38
2022-08-29T21:49:22.804Z,101502.78
2022-08-29T21:51:50.627Z,101505.25
2022-08-29T21:54:20.479Z,101503.16
2022-08-29T21:56:49.408Z,101512.56
2022-08-29T21:59:19.666Z,101511.59
2022-08-29T22:01:48.960Z,101515.19
2022-08-29T22:04:28.211Z,101515.19
2022-08-29T22:06:59.549Z,101519.97
2022-08-29T22:09:30.655Z,101516.34
2022-08-29T22:11:59.374Z,101526.72
2022-08-29T22:14:46.907Z,101529.19
2022-08-29T22:17:16.115Z,101534.59
2022-08-29T22:19:43.320Z,101538.03
2022-08-29T22:22:10.804Z,101536.88
2022-08-29T22:24:37.999Z,101539.81
2022-08-29T22:27:05.432Z,101544.41
2022-08-29T22:29:33.512Z,101542.91
2022-08-29T22:32:00.765Z,101544.34
2022-08-29T22:34:27.893Z,101533.09
2022-08-29T22:36:56.386Z,101532.13
2022-08-29T22:39:23.528Z,101535.03
2022-08-29T22:41:50.579Z,101529.09
2022-08-29T22:44:59.729Z,101535.50
2022-08-29T22:47:05.816Z,101536.34
2022-08-29T22:49:33.629Z,101533.56
2022-08-29T22:52:01.782Z,101532.38
2022-08-29T22:54:37.961Z,101527.97
2022-08-29T22:57:14.030Z,101531.09
2022-08-29T22:59:44.298Z,101537.34
2022-08-29T23:02:13.451Z,101538.53
2022-08-29T23:04:41.467Z,101541.31
2022-08-29T23:07:09.941Z,101541.97
2022-08-29T23:09:42.589Z,101548.06
2022-08-29T23:12:18.622Z,101548.06
2022-08-29T23:14:46.742Z,101546.09
2022-08-29T23:17:16.682Z,101546.91
2022-08-29T23:19:45.295Z,101536.06
2022-08-29T23:22:14.490Z,101533.94
2022-08-29T23:24:55.743Z,101541.00
2022-08-29T23:27:28.673Z,101531.22
2022-08-29T23:29:56.443Z,101532.69
2022-08-29T23:32:23.885Z,101526.47
2022-08-29T23:34:50.934Z,101529.13
2022-08-29T23:37:18.499Z,101530.13
2022-08-29T23:39:46.875Z,101521.94
2022-08-29T23:42:16.555Z,101525.41
2022-08-29T23:44:43.516Z,101525.25
2022-08-29T23:47:10.701Z,101519.06
2022-08-29T23:49:38.118Z,101528.38
2022-08-29T23:52:05.906Z,101517.91
2022-08-29T23:54:35.610Z,101520.53
2022-08-29T23:57:03.624Z,101523.69
2022-08-29T23:59:52.988Z,101520.25
